sensor_id;sensor_type;location;lat;lon;timestamp;temperature;humidity
48551;DHT22;34397;51.176;6.738;2023-06-10T00:02:26;23.60;47.50
48551;DHT22;34397;51.176;6.738;2023-06-10T00:04:58;23.50;47.30
48551;DHT22;34397;51.176;6.738;2023-06-10T00:07:30;23.40;47.60
48551;DHT22;34397;51.176;6.738;2023-06-10T00:10:04;23.30;47.80
48551;DHT22;34397;51.176;6.738;2023-06-10T00:12:36;23.20;47.90
48551;DHT22;34397;51.176;6.738;2023-06-10T00:15:09;23.10;48.00
48551;DHT22;34397;51.176;6.738;2023-06-10T00:17:41;23.10;48.30
48551;DHT22;34397;51.176;6.738;2023-06-10T00:20:13;22.90;48.70
48551;DHT22;34397;51.176;6.738;2023-06-10T00:22:45;22.80;48.80
48551;DHT22;34397;51.176;6.738;2023-06-10T00:25:20;22.70;49.00
48551;DHT22;34397;51.176;6.738;2023-06-10T00:27:52;22.60;49.30
48551;DHT22;34397;51.176;6.738;2023-06-10T00:30:23;22.50;49.30
48551;DHT22;34397;51.176;6.738;2023-06-10T00:32:55;22.40;49.60
48551;DHT22;34397;51.176;6.738;2023-06-10T00:35:27;22.40;49.70
48551;DHT22;34397;51.176;6.738;2023-06-10T00:37:59;22.30;49.70
48551;DHT22;34397;51.176;6.738;2023-06-10T00:40:33;22.20;50.10
48551;DHT22;34397;51.176;6.738;2023-06-10T00:43:10;22.10;50.40
48551;DHT22;34397;51.176;6.738;2023-06-10T00:45:42;22.10;50.50
48551;DHT22;34397;51.176;6.738;2023-06-10T00:48:14;22.00;50.70
48551;DHT22;34397;51.176;6.738;2023-06-10T00:50:46;21.90;51.10
48551;DHT22;34397;51.176;6.738;2023-06-10T00:53:18;21.80;51.20
48551;DHT22;34397;51.176;6.738;2023-06-10T00:55:52;21.80;50.90
48551;DHT22;34397;51.176;6.738;2023-06-10T00:58:25;21.70;51.20
48551;DHT22;34397;51.176;6.738;2023-06-10T01:00:56;21.70;51.70
48551;DHT22;34397;51.176;6.738;2023-06-10T01:03:29;21.70;51.70
48551;DHT22;34397;51.176;6.738;2023-06-10T01:06:08;21.60;51.70
48551;DHT22;34397;51.176;6.738;2023-06-10T01:08:54;21.50;52.30
48551;DHT22;34397;51.176;6.738;2023-06-10T01:11:35;21.50;52.90
48551;DHT22;34397;51.176;6.738;2023-06-10T01:14:13;21.40;52.90
48551;DHT22;34397;51.176;6.738;2023-06-10T01:16:45;21.30;53.30
48551;DHT22;34397;51.176;6.738;2023-06-10T01:19:17;21.30;52.90
48551;DHT22;34397;51.176;6.738;2023-06-10T01:21:50;21.20;53.20
48551;DHT22;34397;51.176;6.738;2023-06-10T01:24:22;21.10;53.40
48551;DHT22;34397;51.176;6.738;2023-06-10T01:26:59;21.20;53.40
48551;DHT22;34397;51.176;6.738;2023-06-10T01:29:37;21.10;53.80
48551;DHT22;34397;51.176;6.738;2023-06-10T01:32:17;21.00;54.30
48551;DHT22;34397;51.176;6.738;2023-06-10T01:34:51;21.00;54.30
48551;DHT22;34397;51.176;6.738;2023-06-10T01:37:26;21.00;54.10
48551;DHT22;34397;51.176;6.738;2023-06-10T01:39:59;20.90;54.30
48551;DHT22;34397;51.176;6.738;2023-06-10T01:42:31;20.90;54.40
48551;DHT22;34397;51.176;6.738;2023-06-10T01:45:04;20.80;54.50
48551;DHT22;34397;51.176;6.738;2023-06-10T01:47:36;20.80;53.40
48551;DHT22;34397;51.176;6.738;2023-06-10T01:50:09;20.80;54.10
48551;DHT22;34397;51.176;6.738;2023-06-10T01:52:42;20.80;54.20
48551;DHT22;34397;51.176;6.738;2023-06-10T01:55:14;20.70;54.60
48551;DHT22;34397;51.176;6.738;2023-06-10T01:57:46;20.70;54.70
48551;DHT22;34397;51.176;6.738;2023-06-10T02:00:18;20.60;55.10
48551;DHT22;34397;51.176;6.738;2023-06-10T02:02:50;20.60;54.90
48551;DHT22;34397;51.176;6.738;2023-06-10T02:05:22;20.50;55.10
48551;DHT22;34397;51.176;6.738;2023-06-10T02:07:56;20.40;55.20
48551;DHT22;34397;51.176;6.738;2023-06-10T02:10:27;20.40;55.60
48551;DHT22;34397;51.176;6.738;2023-06-10T02:12:59;20.30;55.50
48551;DHT22;34397;51.176;6.738;2023-06-10T02:15:31;20.20;55.70
48551;DHT22;34397;51.176;6.738;2023-06-10T02:18:03;20.30;55.90
48551;DHT22;34397;51.176;6.738;2023-06-10T02:20:36;20.20;56.00
48551;DHT22;34397;51.176;6.738;2023-06-10T02:23:09;20.20;56.20
48551;DHT22;34397;51.176;6.738;2023-06-10T02:25:41;20.20;56.40
48551;DHT22;34397;51.176;6.738;2023-06-10T02:28:13;20.20;56.60
48551;DHT22;34397;51.176;6.738;2023-06-10T02:30:45;20.20;56.60
48551;DHT22;34397;51.176;6.738;2023-06-10T02:33:17;20.20;56.70
48551;DHT22;34397;51.176;6.738;2023-06-10T02:35:50;20.20;56.70
48551;DHT22;34397;51.176;6.738;2023-06-10T02:38:23;20.10;56.70
48551;DHT22;34397;51.176;6.738;2023-06-10T02:40:55;20.10;56.90
48551;DHT22;34397;51.176;6.738;2023-06-10T02:43:27;20.00;56.90
48551;DHT22;34397;51.176;6.738;2023-06-10T02:45:59;19.90;56.80
48551;DHT22;34397;51.176;6.738;2023-06-10T02:48:34;19.90;57.10
48551;DHT22;34397;51.176;6.738;2023-06-10T02:51:12;19.80;57.20
48551;DHT22;34397;51.176;6.738;2023-06-10T02:53:45;19.80;57.40
48551;DHT22;34397;51.176;6.738;2023-06-10T02:56:18;19.70;57.40
48551;DHT22;34397;51.176;6.738;2023-06-10T02:58:50;19.70;57.60
48551;DHT22;34397;51.176;6.738;2023-06-10T03:01:22;19.60;57.50
48551;DHT22;34397;51.176;6.738;2023-06-10T03:03:54;19.60;57.60
48551;DHT22;34397;51.176;6.738;2023-06-10T03:06:26;19.60;57.70
48551;DHT22;34397;51.176;6.738;2023-06-10T03:09:00;19.60;57.70
48551;DHT22;34397;51.176;6.738;2023-06-10T03:11:32;19.60;57.80
48551;DHT22;34397;51.176;6.738;2023-06-10T03:14:04;19.50;57.70
48551;DHT22;34397;51.176;6.738;2023-06-10T03:16:36;19.50;57.80
48551;DHT22;34397;51.176;6.738;2023-06-10T03:19:10;19.60;57.80
48551;DHT22;34397;51.176;6.738;2023-06-10T03:21:44;19.50;57.80
48551;DHT22;34397;51.176;6.738;2023-06-10T03:24:17;19.50;57.90
48551;DHT22;34397;51.176;6.738;2023-06-10T03:26:49;19.50;58.10
48551;DHT22;34397;51.176;6.738;2023-06-10T03:29:21;19.40;58.10
48551;DHT22;34397;51.176;6.738;2023-06-10T03:31:53;19.40;58.10
48551;DHT22;34397;51.176;6.738;2023-06-10T03:34:25;19.40;58.20
48551;DHT22;34397;51.176;6.738;2023-06-10T03:36:57;19.30;58.20
48551;DHT22;34397;51.176;6.738;2023-06-10T03:39:30;19.30;58.30
48551;DHT22;34397;51.176;6.738;2023-06-10T03:42:03;19.20;58.40
48551;DHT22;34397;51.176;6.738;2023-06-10T03:44:35;19.20;58.60
48551;DHT22;34397;51.176;6.738;2023-06-10T03:47:07;19.30;58.80
48551;DHT22;34397;51.176;6.738;2023-06-10T03:49:39;19.30;58.60
48551;DHT22;34397;51.176;6.738;2023-06-10T03:52:11;19.30;58.70
48551;DHT22;34397;51.176;6.738;2023-06-10T03:54:44;19.30;58.60
48551;DHT22;34397;51.176;6.738;2023-06-10T03:57:16;19.20;58.80
48551;DHT22;34397;51.176;6.738;2023-06-10T03:59:48;19.20;58.80
48551;DHT22;34397;51.176;6.738;2023-06-10T04:02:20;19.20;58.80
48551;DHT22;34397;51.176;6.738;2023-06-10T04:04:52;19.20;58.90
48551;DHT22;34397;51.176;6.738;2023-06-10T04:07:24;19.20;59.00
48551;DHT22;34397;51.176;6.738;2023-06-10T04:09:58;19.20;59.00
48551;DHT22;34397;51.176;6.738;2023-06-10T04:12:29;19.20;59.10
48551;DHT22;34397;51.176;6.738;2023-06-10T04:15:01;19.20;59.10
48551;DHT22;34397;51.176;6.738;2023-06-10T04:17:33;19.20;59.20
48551;DHT22;34397;51.176;6.738;2023-06-10T04:20:06;19.20;59.30
48551;DHT22;34397;51.176;6.738;2023-06-10T04:22:40;19.30;59.40
48551;DHT22;34397;51.176;6.738;2023-06-10T04:25:13;19.30;59.80
48551;DHT22;34397;51.176;6.738;2023-06-10T04:27:45;19.30;60.00
48551;DHT22;34397;51.176;6.738;2023-06-10T04:30:17;19.30;60.00
48551;DHT22;34397;51.176;6.738;2023-06-10T04:32:49;19.30;60.30
48551;DHT22;34397;51.176;6.738;2023-06-10T04:35:21;19.30;60.40
48551;DHT22;34397;51.176;6.738;2023-06-10T04:37:53;19.30;60.40
48551;DHT22;34397;51.176;6.738;2023-06-10T04:40:26;19.30;60.50
48551;DHT22;34397;51.176;6.738;2023-06-10T04:42:58;19.30;60.90
48551;DHT22;34397;51.176;6.738;2023-06-10T04:45:30;19.30;61.10
48551;DHT22;34397;51.176;6.738;2023-06-10T04:48:01;19.30;61.10
48551;DHT22;34397;51.176;6.738;2023-06-10T04:50:33;19.30;61.40
48551;DHT22;34397;51.176;6.738;2023-06-10T04:53:05;19.30;61.60
48551;DHT22;34397;51.176;6.738;2023-06-10T04:55:39;19.30;61.70
48551;DHT22;34397;51.176;6.738;2023-06-10T04:58:11;19.40;61.90
48551;DHT22;34397;51.176;6.738;2023-06-10T05:00:42;19.40;61.70
48551;DHT22;34397;51.176;6.738;2023-06-10T05:03:14;19.50;61.90
48551;DHT22;34397;51.176;6.738;2023-06-10T05:05:46;19.50;62.20
48551;DHT22;34397;51.176;6.738;2023-06-10T05:08:18;19.60;61.70
48551;DHT22;34397;51.176;6.738;2023-06-10T05:10:51;19.60;61.80
48551;DHT22;34397;51.176;6.738;2023-06-10T05:13:23;19.60;62.40
48551;DHT22;34397;51.176;6.738;2023-06-10T05:15:55;19.60;62.50
48551;DHT22;34397;51.176;6.738;2023-06-10T05:18:27;19.70;62.40
48551;DHT22;34397;51.176;6.738;2023-06-10T05:20:59;19.80;62.30
48551;DHT22;34397;51.176;6.738;2023-06-10T05:23:31;19.80;62.30
48551;DHT22;34397;51.176;6.738;2023-06-10T05:26:04;19.90;61.40
48551;DHT22;34397;51.176;6.738;2023-06-10T05:28:36;19.90;61.00
48551;DHT22;34397;51.176;6.738;2023-06-10T05:31:08;20.00;59.80
48551;DHT22;34397;51.176;6.738;2023-06-10T05:33:40;20.10;60.00
48551;DHT22;34397;51.176;6.738;2023-06-10T05:36:12;20.10;59.70
48551;DHT22;34397;51.176;6.738;2023-06-10T05:38:44;20.20;59.20
48551;DHT22;34397;51.176;6.738;2023-06-10T05:41:17;20.40;59.00
48551;DHT22;34397;51.176;6.738;2023-06-10T05:43:49;20.40;58.80
48551;DHT22;34397;51.176;6.738;2023-06-10T05:46:21;20.50;59.20
48551;DHT22;34397;51.176;6.738;2023-06-10T05:48:53;20.50;58.10
48551;DHT22;34397;51.176;6.738;2023-06-10T05:51:25;20.70;57.90
48551;DHT22;34397;51.176;6.738;2023-06-10T05:53:57;20.70;57.90
48551;DHT22;34397;51.176;6.738;2023-06-10T05:56:31;20.80;57.30
48551;DHT22;34397;51.176;6.738;2023-06-10T05:59:02;20.80;57.10
48551;DHT22;34397;51.176;6.738;2023-06-10T06:01:34;21.00;57.00
48551;DHT22;34397;51.176;6.738;2023-06-10T06:04:06;21.00;56.20
48551;DHT22;34397;51.176;6.738;2023-06-10T06:06:39;21.10;55.70
48551;DHT22;34397;51.176;6.738;2023-06-10T06:09:11;21.10;55.50
48551;DHT22;34397;51.176;6.738;2023-06-10T06:11:45;21.20;55.30
48551;DHT22;34397;51.176;6.738;2023-06-10T06:14:17;21.30;54.70
48551;DHT22;34397;51.176;6.738;2023-06-10T06:16:48;21.40;55.20
48551;DHT22;34397;51.176;6.738;2023-06-10T06:19:20;21.40;55.40
48551;DHT22;34397;51.176;6.738;2023-06-10T06:21:52;21.50;54.40
48551;DHT22;34397;51.176;6.738;2023-06-10T06:24:24;21.50;54.30
48551;DHT22;34397;51.176;6.738;2023-06-10T06:26:57;21.60;54.40
48551;DHT22;34397;51.176;6.738;2023-06-10T06:29:29;21.70;54.20
48551;DHT22;34397;51.176;6.738;2023-06-10T06:32:01;21.70;53.10
48551;DHT22;34397;51.176;6.738;2023-06-10T06:34:33;21.80;53.30
48551;DHT22;34397;51.176;6.738;2023-06-10T06:37:05;21.80;52.80
48551;DHT22;34397;51.176;6.738;2023-06-10T06:39:37;21.90;53.50
48551;DHT22;34397;51.176;6.738;2023-06-10T06:42:10;21.90;52.80
48551;DHT22;34397;51.176;6.738;2023-06-10T06:44:42;22.00;53.00
48551;DHT22;34397;51.176;6.738;2023-06-10T06:47:14;22.10;52.30
48551;DHT22;34397;51.176;6.738;2023-06-10T06:49:48;22.10;52.60
48551;DHT22;34397;51.176;6.738;2023-06-10T06:52:20;22.10;51.70
48551;DHT22;34397;51.176;6.738;2023-06-10T06:54:52;22.20;51.10
48551;DHT22;34397;51.176;6.738;2023-06-10T06:57:25;22.20;50.50
48551;DHT22;34397;51.176;6.738;2023-06-10T06:59:57;22.20;50.40
48551;DHT22;34397;51.176;6.738;2023-06-10T07:02:29;22.30;50.10
48551;DHT22;34397;51.176;6.738;2023-06-10T07:05:02;22.30;50.00
48551;DHT22;34397;51.176;6.738;2023-06-10T07:07:34;22.40;50.20
48551;DHT22;34397;51.176;6.738;2023-06-10T07:10:07;22.50;50.00
48551;DHT22;34397;51.176;6.738;2023-06-10T07:12:41;22.50;50.00
48551;DHT22;34397;51.176;6.738;2023-06-10T07:15:12;22.60;50.80
48551;DHT22;34397;51.176;6.738;2023-06-10T07:17:44;22.60;50.90
48551;DHT22;34397;51.176;6.738;2023-06-10T07:20:16;22.60;50.60
48551;DHT22;34397;51.176;6.738;2023-06-10T07:22:48;22.70;50.00
48551;DHT22;34397;51.176;6.738;2023-06-10T07:25:20;22.70;50.60
48551;DHT22;34397;51.176;6.738;2023-06-10T07:27:53;22.80;48.70
48551;DHT22;34397;51.176;6.738;2023-06-10T07:30:25;22.80;49.80
48551;DHT22;34397;51.176;6.738;2023-06-10T07:32:57;22.80;48.80
48551;DHT22;34397;51.176;6.738;2023-06-10T07:35:29;22.80;48.90
48551;DHT22;34397;51.176;6.738;2023-06-10T07:38:01;22.90;48.90
48551;DHT22;34397;51.176;6.738;2023-06-10T07:40:33;22.90;49.10
48551;DHT22;34397;51.176;6.738;2023-06-10T07:43:06;22.90;48.50
48551;DHT22;34397;51.176;6.738;2023-06-10T07:45:39;22.90;48.60
48551;DHT22;34397;51.176;6.738;2023-06-10T07:48:11;23.00;47.40
48551;DHT22;34397;51.176;6.738;2023-06-10T07:50:43;23.10;48.50
48551;DHT22;34397;51.176;6.738;2023-06-10T07:53:15;23.10;48.80
48551;DHT22;34397;51.176;6.738;2023-06-10T07:55:47;23.20;47.60
48551;DHT22;34397;51.176;6.738;2023-06-10T07:58:20;23.20;48.40
48551;DHT22;34397;51.176;6.738;2023-06-10T08:00:52;23.30;48.70
48551;DHT22;34397;51.176;6.738;2023-06-10T08:03:25;23.30;47.80
48551;DHT22;34397;51.176;6.738;2023-06-10T08:05:57;23.40;47.10
48551;DHT22;34397;51.176;6.738;2023-06-10T08:08:29;23.40;47.50
48551;DHT22;34397;51.176;6.738;2023-06-10T08:11:01;23.40;47.20
48551;DHT22;34397;51.176;6.738;2023-06-10T08:13:34;23.50;48.50
48551;DHT22;34397;51.176;6.738;2023-06-10T08:16:06;23.50;48.00
48551;DHT22;34397;51.176;6.738;2023-06-10T08:18:38;23.60;47.50
48551;DHT22;34397;51.176;6.738;2023-06-10T08:21:10;23.60;48.20
48551;DHT22;34397;51.176;6.738;2023-06-10T08:23:42;23.70;47.70
48551;DHT22;34397;51.176;6.738;2023-06-10T08:26:14;23.70;47.00
48551;DHT22;34397;51.176;6.738;2023-06-10T08:28:47;23.80;47.30
48551;DHT22;34397;51.176;6.738;2023-06-10T08:31:19;23.80;47.00
48551;DHT22;34397;51.176;6.738;2023-06-10T08:33:51;23.90;46.70
48551;DHT22;34397;51.176;6.738;2023-06-10T08:36:23;23.90;46.70
48551;DHT22;34397;51.176;6.738;2023-06-10T08:38:55;23.90;46.60
48551;DHT22;34397;51.176;6.738;2023-06-10T08:41:29;24.00;47.40
48551;DHT22;34397;51.176;6.738;2023-06-10T08:44:09;24.00;47.10
48551;DHT22;34397;51.176;6.738;2023-06-10T08:46:45;24.10;46.90
48551;DHT22;34397;51.176;6.738;2023-06-10T08:49:18;24.20;46.40
48551;DHT22;34397;51.176;6.738;2023-06-10T08:51:57;24.20;46.20
48551;DHT22;34397;51.176;6.738;2023-06-10T08:54:32;24.20;46.00
48551;DHT22;34397;51.176;6.738;2023-06-10T08:57:06;24.30;45.50
48551;DHT22;34397;51.176;6.738;2023-06-10T08:59:40;24.30;46.00
48551;DHT22;34397;51.176;6.738;2023-06-10T09:02:13;24.40;47.10
48551;DHT22;34397;51.176;6.738;2023-06-10T09:04:46;24.50;46.30
48551;DHT22;34397;51.176;6.738;2023-06-10T09:07:20;24.50;45.70
48551;DHT22;34397;51.176;6.738;2023-06-10T09:09:53;24.60;45.60
48551;DHT22;34397;51.176;6.738;2023-06-10T09:12:26;24.70;45.40
48551;DHT22;34397;51.176;6.738;2023-06-10T09:14:59;24.80;46.20
48551;DHT22;34397;51.176;6.738;2023-06-10T09:17:32;24.80;45.50
48551;DHT22;34397;51.176;6.738;2023-06-10T09:20:05;24.90;46.00
48551;DHT22;34397;51.176;6.738;2023-06-10T09:22:37;25.00;47.30
48551;DHT22;34397;51.176;6.738;2023-06-10T09:25:11;25.10;47.30
48551;DHT22;34397;51.176;6.738;2023-06-10T09:27:45;25.30;47.10
48551;DHT22;34397;51.176;6.738;2023-06-10T09:30:26;25.70;46.20
48551;DHT22;34397;51.176;6.738;2023-06-10T09:33:01;26.10;46.00
48551;DHT22;34397;51.176;6.738;2023-06-10T09:35:34;26.60;46.80
48551;DHT22;34397;51.176;6.738;2023-06-10T09:38:06;27.10;46.30
48551;DHT22;34397;51.176;6.738;2023-06-10T09:40:48;27.60;44.50
48551;DHT22;34397;51.176;6.738;2023-06-10T09:43:22;28.20;41.80
48551;DHT22;34397;51.176;6.738;2023-06-10T09:45:57;28.70;42.80
48551;DHT22;34397;51.176;6.738;2023-06-10T09:48:29;29.20;42.30
48551;DHT22;34397;51.176;6.738;2023-06-10T09:51:00;29.80;42.20
48551;DHT22;34397;51.176;6.738;2023-06-10T09:53:33;30.20;40.90
48551;DHT22;34397;51.176;6.738;2023-06-10T09:56:05;30.60;40.80
48551;DHT22;34397;51.176;6.738;2023-06-10T09:58:38;31.10;39.30
48551;DHT22;34397;51.176;6.738;2023-06-10T10:01:15;31.40;37.50
48551;DHT22;34397;51.176;6.738;2023-06-10T10:03:48;31.80;38.10
48551;DHT22;34397;51.176;6.738;2023-06-10T10:06:21;32.10;37.50
48551;DHT22;34397;51.176;6.738;2023-06-10T10:08:53;32.30;37.50
48551;DHT22;34397;51.176;6.738;2023-06-10T10:11:25;32.60;36.80
48551;DHT22;34397;51.176;6.738;2023-06-10T10:13:58;32.80;36.60
48551;DHT22;34397;51.176;6.738;2023-06-10T10:16:35;33.10;36.80
48551;DHT22;34397;51.176;6.738;2023-06-10T10:19:14;33.30;36.20
48551;DHT22;34397;51.176;6.738;2023-06-10T10:21:52;33.60;35.50
48551;DHT22;34397;51.176;6.738;2023-06-10T10:24:32;33.70;35.70
48551;DHT22;34397;51.176;6.738;2023-06-10T10:27:13;34.00;34.40
48551;DHT22;34397;51.176;6.738;2023-06-10T10:29:48;34.20;34.80
48551;DHT22;34397;51.176;6.738;2023-06-10T10:32:32;34.40;34.60
48551;DHT22;34397;51.176;6.738;2023-06-10T10:35:17;34.70;33.90
48551;DHT22;34397;51.176;6.738;2023-06-10T10:37:52;34.90;34.30
48551;DHT22;34397;51.176;6.738;2023-06-10T10:40:26;35.10;33.70
48551;DHT22;34397;51.176;6.738;2023-06-10T10:43:01;35.30;33.10
48551;DHT22;34397;51.176;6.738;2023-06-10T10:45:34;35.50;33.10
48551;DHT22;34397;51.176;6.738;2023-06-10T10:48:08;35.70;33.50
48551;DHT22;34397;51.176;6.738;2023-06-10T10:50:42;35.90;33.90
48551;DHT22;34397;51.176;6.738;2023-06-10T10:53:20;36.10;32.60
48551;DHT22;34397;51.176;6.738;2023-06-10T10:55:58;36.20;30.80
48551;DHT22;34397;51.176;6.738;2023-06-10T10:58:31;36.10;31.60
48551;DHT22;34397;51.176;6.738;2023-06-10T11:01:10;35.90;31.20
48551;DHT22;34397;51.176;6.738;2023-06-10T11:03:45;35.60;30.80
48551;DHT22;34397;51.176;6.738;2023-06-10T11:06:18;35.50;31.50
48551;DHT22;34397;51.176;6.738;2023-06-10T11:08:50;35.20;33.40
48551;DHT22;34397;51.176;6.738;2023-06-10T11:11:24;35.00;32.80
48551;DHT22;34397;51.176;6.738;2023-06-10T11:14:15;34.80;33.00
48551;DHT22;34397;51.176;6.738;2023-06-10T11:16:59;34.70;32.10
48551;DHT22;34397;51.176;6.738;2023-06-10T11:19:36;34.60;32.70
48551;DHT22;34397;51.176;6.738;2023-06-10T11:22:16;34.50;32.40
48551;DHT22;34397;51.176;6.738;2023-06-10T11:24:49;34.50;31.90
48551;DHT22;34397;51.176;6.738;2023-06-10T11:27:23;34.40;33.20
48551;DHT22;34397;51.176;6.738;2023-06-10T11:32:51;34.00;33.10
48551;DHT22;34397;51.176;6.738;2023-06-10T11:35:25;33.90;33.20
48551;DHT22;34397;51.176;6.738;2023-06-10T11:37:58;33.60;32.40
48551;DHT22;34397;51.176;6.738;2023-06-10T11:40:30;33.50;34.20
48551;DHT22;34397;51.176;6.738;2023-06-10T11:43:04;33.30;34.20
48551;DHT22;34397;51.176;6.738;2023-06-10T11:45:36;33.40;34.70
48551;DHT22;34397;51.176;6.738;2023-06-10T11:48:09;33.50;33.90
48551;DHT22;34397;51.176;6.738;2023-06-10T11:50:43;33.80;34.00
48551;DHT22;34397;51.176;6.738;2023-06-10T11:53:15;34.00;34.40
48551;DHT22;34397;51.176;6.738;2023-06-10T11:55:49;34.30;33.10
48551;DHT22;34397;51.176;6.738;2023-06-10T11:58:22;34.60;31.90
48551;DHT22;34397;51.176;6.738;2023-06-10T12:00:55;34.70;32.80
48551;DHT22;34397;51.176;6.738;2023-06-10T12:03:35;34.70;32.60
48551;DHT22;34397;51.176;6.738;2023-06-10T12:06:09;34.50;31.90
48551;DHT22;34397;51.176;6.738;2023-06-10T12:08:42;34.40;32.30
48551;DHT22;34397;51.176;6.738;2023-06-10T12:11:15;34.10;32.40
48551;DHT22;34397;51.176;6.738;2023-06-10T12:13:47;33.90;32.40
48551;DHT22;34397;51.176;6.738;2023-06-10T12:16:20;33.60;32.40
48551;DHT22;34397;51.176;6.738;2023-06-10T12:19:01;33.50;33.20
48551;DHT22;34397;51.176;6.738;2023-06-10T12:21:36;33.20;32.40
48551;DHT22;34397;51.176;6.738;2023-06-10T12:24:10;33.10;32.50
48551;DHT22;34397;51.176;6.738;2023-06-10T12:26:44;33.00;33.70
48551;DHT22;34397;51.176;6.738;2023-06-10T12:29:20;32.80;33.50
48551;DHT22;34397;51.176;6.738;2023-06-10T12:32:01;32.60;34.50
48551;DHT22;34397;51.176;6.738;2023-06-10T12:34:37;32.30;34.80
48551;DHT22;34397;51.176;6.738;2023-06-10T12:37:13;32.20;34.20
48551;DHT22;34397;51.176;6.738;2023-06-10T12:39:51;31.90;34.70
48551;DHT22;34397;51.176;6.738;2023-06-10T12:42:25;31.70;34.70
48551;DHT22;34397;51.176;6.738;2023-06-10T12:44:57;31.50;34.80
48551;DHT22;34397;51.176;6.738;2023-06-10T12:47:32;31.30;35.50
48551;DHT22;34397;51.176;6.738;2023-06-10T12:50:06;31.20;36.10
48551;DHT22;34397;51.176;6.738;2023-06-10T12:52:40;31.10;36.00
48551;DHT22;34397;51.176;6.738;2023-06-10T12:55:12;30.90;35.20
48551;DHT22;34397;51.176;6.738;2023-06-10T12:57:50;30.80;35.50
48551;DHT22;34397;51.176;6.738;2023-06-10T13:00:23;30.90;37.40
48551;DHT22;34397;51.176;6.738;2023-06-10T13:02:56;31.10;36.20
48551;DHT22;34397;51.176;6.738;2023-06-10T13:05:30;31.30;35.90
48551;DHT22;34397;51.176;6.738;2023-06-10T13:08:05;31.40;35.60
48551;DHT22;34397;51.176;6.738;2023-06-10T13:10:38;31.60;35.70
48551;DHT22;34397;51.176;6.738;2023-06-10T13:13:10;31.80;35.00
48551;DHT22;34397;51.176;6.738;2023-06-10T13:15:42;31.90;35.30
48551;DHT22;34397;51.176;6.738;2023-06-10T13:18:13;32.10;34.50
48551;DHT22;34397;51.176;6.738;2023-06-10T13:20:45;32.40;35.00
48551;DHT22;34397;51.176;6.738;2023-06-10T13:23:19;32.60;33.20
48551;DHT22;34397;51.176;6.738;2023-06-10T13:25:50;33.00;34.60
48551;DHT22;34397;51.176;6.738;2023-06-10T13:28:23;33.30;33.10
48551;DHT22;34397;51.176;6.738;2023-06-10T13:30:55;33.60;32.60
48551;DHT22;34397;51.176;6.738;2023-06-10T13:33:27;33.90;32.10
48551;DHT22;34397;51.176;6.738;2023-06-10T13:35:59;34.30;31.50
48551;DHT22;34397;51.176;6.738;2023-06-10T13:38:33;34.60;31.10
48551;DHT22;34397;51.176;6.738;2023-06-10T13:41:05;34.90;30.70
48551;DHT22;34397;51.176;6.738;2023-06-10T13:43:37;35.10;30.60
48551;DHT22;34397;51.176;6.738;2023-06-10T13:46:09;35.30;30.20
48551;DHT22;34397;51.176;6.738;2023-06-10T13:48:41;35.40;30.50
48551;DHT22;34397;51.176;6.738;2023-06-10T13:51:12;35.50;30.80
48551;DHT22;34397;51.176;6.738;2023-06-10T13:53:46;35.40;30.50
48551;DHT22;34397;51.176;6.738;2023-06-10T13:56:18;35.40;31.00
48551;DHT22;34397;51.176;6.738;2023-06-10T13:58:50;35.30;30.20
48551;DHT22;34397;51.176;6.738;2023-06-10T14:01:21;35.20;30.20
48551;DHT22;34397;51.176;6.738;2023-06-10T14:03:53;35.00;31.70
48551;DHT22;34397;51.176;6.738;2023-06-10T14:06:25;34.70;31.90
48551;DHT22;34397;51.176;6.738;2023-06-10T14:08:58;34.50;32.60
48551;DHT22;34397;51.176;6.738;2023-06-10T14:11:30;34.20;32.40
48551;DHT22;34397;51.176;6.738;2023-06-10T14:14:03;34.10;31.70
48551;DHT22;34397;51.176;6.738;2023-06-10T14:16:35;33.80;32.50
48551;DHT22;34397;51.176;6.738;2023-06-10T14:19:07;33.60;32.30
48551;DHT22;34397;51.176;6.738;2023-06-10T14:21:39;33.40;33.60
48551;DHT22;34397;51.176;6.738;2023-06-10T14:24:12;33.20;33.50
48551;DHT22;34397;51.176;6.738;2023-06-10T14:26:44;33.10;33.80
48551;DHT22;34397;51.176;6.738;2023-06-10T14:29:16;32.90;33.70
48551;DHT22;34397;51.176;6.738;2023-06-10T14:31:49;32.80;33.50
48551;DHT22;34397;51.176;6.738;2023-06-10T14:34:21;32.60;33.70
48551;DHT22;34397;51.176;6.738;2023-06-10T14:36:58;32.40;33.00
48551;DHT22;34397;51.176;6.738;2023-06-10T14:39:32;32.30;33.10
48551;DHT22;34397;51.176;6.738;2023-06-10T14:42:04;32.10;33.30
48551;DHT22;34397;51.176;6.738;2023-06-10T14:44:37;31.90;33.40
48551;DHT22;34397;51.176;6.738;2023-06-10T14:47:09;31.80;33.80
48551;DHT22;34397;51.176;6.738;2023-06-10T14:49:41;31.60;34.50
48551;DHT22;34397;51.176;6.738;2023-06-10T14:52:14;31.60;34.70
48551;DHT22;34397;51.176;6.738;2023-06-10T14:54:47;31.50;33.90
48551;DHT22;34397;51.176;6.738;2023-06-10T14:57:19;31.40;33.50
48551;DHT22;34397;51.176;6.738;2023-06-10T14:59:51;31.40;33.90
48551;DHT22;34397;51.176;6.738;2023-06-10T15:02:23;31.40;33.70
48551;DHT22;34397;51.176;6.738;2023-06-10T15:04:55;31.40;34.90
48551;DHT22;34397;51.176;6.738;2023-06-10T15:07:26;31.40;34.80
48551;DHT22;34397;51.176;6.738;2023-06-10T15:10:00;31.30;34.90
48551;DHT22;34397;51.176;6.738;2023-06-10T15:12:32;31.30;35.40
48551;DHT22;34397;51.176;6.738;2023-06-10T15:15:04;31.30;35.50
48551;DHT22;34397;51.176;6.738;2023-06-10T15:17:37;31.20;35.30
48551;DHT22;34397;51.176;6.738;2023-06-10T15:20:09;31.20;35.90
48551;DHT22;34397;51.176;6.738;2023-06-10T15:22:41;31.10;35.80
48551;DHT22;34397;51.176;6.738;2023-06-10T15:25:14;31.10;35.50
48551;DHT22;34397;51.176;6.738;2023-06-10T15:27:46;31.10;35.70
48551;DHT22;34397;51.176;6.738;2023-06-10T15:30:18;31.00;35.70
48551;DHT22;34397;51.176;6.738;2023-06-10T15:32:50;31.00;35.80
48551;DHT22;34397;51.176;6.738;2023-06-10T15:35:22;30.90;35.10
48551;DHT22;34397;51.176;6.738;2023-06-10T15:37:53;30.90;34.10
48551;DHT22;34397;51.176;6.738;2023-06-10T15:40:26;30.80;34.40
48551;DHT22;34397;51.176;6.738;2023-06-10T15:42:58;30.80;34.90
48551;DHT22;34397;51.176;6.738;2023-06-10T15:45:30;30.80;35.20
48551;DHT22;34397;51.176;6.738;2023-06-10T15:48:02;30.70;34.80
48551;DHT22;34397;51.176;6.738;2023-06-10T15:50:34;30.70;35.40
48551;DHT22;34397;51.176;6.738;2023-06-10T15:53:06;30.70;34.60
48551;DHT22;34397;51.176;6.738;2023-06-10T15:55:39;30.70;35.20
48551;DHT22;34397;51.176;6.738;2023-06-10T15:58:11;30.60;35.60
48551;DHT22;34397;51.176;6.738;2023-06-10T16:00:43;30.70;35.40
48551;DHT22;34397;51.176;6.738;2023-06-10T16:03:15;30.60;35.60
48551;DHT22;34397;51.176;6.738;2023-06-10T16:05:47;30.70;36.40
48551;DHT22;34397;51.176;6.738;2023-06-10T16:08:19;30.80;35.20
48551;DHT22;34397;51.176;6.738;2023-06-10T16:10:52;30.70;34.90